createdAt,value
2023-02-18T00:01:23.135Z,97367.47
2023-02-18T00:03:50.453Z,97373.50
2023-02-18T00:06:22.716Z,97386.75
2023-02-18T00:08:49.980Z,97383.28
2023-02-18T00:11:18.662Z,97383.28
2023-02-18T00:13:50.577Z,97377.75
2023-02-18T00:16:17.050Z,97370.97
2023-02-18T00:18:43.488Z,97385.19
2023-02-18T00:21:10.064Z,97383.69
2023-02-18T00:23:36.579Z,97391.00
2023-02-18T00:26:09.758Z,97387.63
2023-02-18T00:28:36.737Z,97390.66
2023-02-18T00:31:10.926Z,97392.72
2023-02-18T00:33:38.078Z,97390.84
2023-02-18T00:36:07.058Z,97382.81
2023-02-18T00:38:34.035Z,97388.63
2023-02-18T00:41:01.094Z,97383.50
2023-02-18T00:43:28.320Z,97392.69
2023-02-18T00:45:55.020Z,97384.97
2023-02-18T00:48:21.617Z,97389.97
2023-02-18T00:50:48.369Z,97381.94
2023-02-18T00:53:14.903Z,97383.22
2023-02-18T00:55:43.358Z,97386.13
2023-02-18T00:58:11.557Z,97381.84
2023-02-18T01:00:38.329Z,97382.31
2023-02-18T01:03:07.658Z,97372.59
2023-02-18T01:05:34.876Z,97375.25
2023-02-18T01:08:03.476Z,97379.38
2023-02-18T01:10:29.912Z,97374.84
2023-02-18T01:12:56.397Z,97371.53
2023-02-18T01:15:23.789Z,97378.53
2023-02-18T01:17:51.837Z,97368.56
2023-02-18T01:20:19.819Z,97365.28
2023-02-18T01:22:46.238Z,97373.16
2023-02-18T01:25:13.326Z,97380.97
2023-02-18T01:27:39.764Z,97374.72
2023-02-18T01:30:09.431Z,97373.44
2023-02-18T01:32:35.840Z,97368.53
2023-02-18T01:35:03.950Z,97379.03
2023-02-18T01:37:31.754Z,97365.97
2023-02-18T01:39:58.201Z,97374.44
2023-02-18T01:42:28.929Z,97377.19
2023-02-18T01:45:33.185Z,97386.47
2023-02-18T01:48:17.328Z,97391.09
2023-02-18T01:50:47.494Z,97383.28
2023-02-18T01:53:16.785Z,97383.63
2023-02-18T01:55:43.575Z,97382.00
2023-02-18T01:58:12.886Z,97382.44
2023-02-18T02:00:40.799Z,97372.66
2023-02-18T02:03:07.975Z,97388.63
2023-02-18T02:05:34.994Z,97390.44
2023-02-18T02:08:02.645Z,97386.06
2023-02-18T02:10:42.428Z,97384.88
2023-02-18T02:13:22.014Z,97379.31
2023-02-18T02:15:59.840Z,97375.41
2023-02-18T02:18:44.189Z,97380.59
2023-02-18T02:21:47.240Z,97375.44
2023-02-18T02:24:28.969Z,97355.91
2023-02-18T02:27:21.820Z,97351.09
2023-02-18T02:30:26.148Z,97348.69
2023-02-18T02:33:16.980Z,97345.47
2023-02-18T02:35:43.342Z,97346.50
2023-02-18T02:38:24.449Z,97341.16
2023-02-18T02:41:02.313Z,97342.94
2023-02-18T02:43:34.558Z,97339.59
2023-02-18T02:46:17.257Z,97343.50
2023-02-18T02:48:50.620Z,97340.94
2023-02-18T02:51:27.067Z,97342.38
2023-02-18T02:53:53.759Z,97341.41
2023-02-18T02:56:24.945Z,97333.47
2023-02-18T02:59:04.163Z,97336.78
2023-02-18T03:01:53.655Z,97338.53
2023-02-18T03:05:02.470Z,97331.75
2023-02-18T03:07:47.308Z,97340.25
2023-02-18T03:10:57.090Z,97336.09
2023-02-18T03:13:53.707Z,97341.53
2023-02-18T03:16:38.605Z,97338.53
2023-02-18T03:19:14.271Z,97330.84
2023-02-18T03:22:06.968Z,97335.03
2023-02-18T03:24:46.607Z,97334.72
2023-02-18T03:27:17.600Z,97334.31
2023-02-18T03:29:48.772Z,97337.13
2023-02-18T03:32:19.346Z,97345.41
2023-02-18T03:34:51.576Z,97345.72
2023-02-18T03:37:20.816Z,97337.91
2023-02-18T03:39:51.519Z,97347.78
2023-02-18T03:42:18.786Z,97343.16
2023-02-18T03:44:45.281Z,97352.44
2023-02-18T03:47:12.479Z,97346.75
2023-02-18T03:49:40.967Z,97346.25
2023-02-18T03:52:07.537Z,97345.94
2023-02-18T03:54:33.997Z,97345.47
2023-02-18T03:57:00.438Z,97341.97
2023-02-18T03:59:27.939Z,97346.56
2023-02-18T04:01:54.374Z,97341.53
2023-02-18T04:04:20.911Z,97346.75
2023-02-18T04:06:47.337Z,97340.84
2023-02-18T04:09:13.737Z,97345.16
2023-02-18T04:11:40.865Z,97349.47
2023-02-18T04:14:08.225Z,97343.38
2023-02-18T04:16:34.748Z,97341.66
2023-02-18T04:19:01.216Z,97339.25
2023-02-18T04:21:28.656Z,97335.16
2023-02-18T04:23:55.087Z,97338.72
2023-02-18T04:26:34.396Z,97338.91
2023-02-18T04:29:00.824Z,97342.44
2023-02-18T04:31:27.420Z,97341.19
2023-02-18T04:33:53.921Z,97346.91
2023-02-18T04:36:20.455Z,97355.22
2023-02-18T04:38:47.018Z,97346.34
2023-02-18T04:41:17.525Z,97356.56
2023-02-18T04:43:43.978Z,97359.75
2023-02-18T04:46:10.806Z,97356.94
2023-02-18T04:48:37.487Z,97353.72
2023-02-18T04:51:10.967Z,97354.00
2023-02-18T04:53:37.573Z,97351.59
2023-02-18T04:56:04.356Z,97350.16
2023-02-18T04:58:31.900Z,97349.19
2023-02-18T05:01:03.520Z,97346.69
2023-02-18T05:03:31.059Z,97355.78
2023-02-18T05:05:58.048Z,97359.53
2023-02-18T05:08:24.725Z,97353.94
2023-02-18T05:10:51.317Z,97358.97
2023-02-18T05:13:17.930Z,97352.88
2023-02-18T05:15:44.412Z,97351.59
2023-02-18T05:18:10.976Z,97351.50
2023-02-18T05:20:37.568Z,97345.84
2023-02-18T05:23:04.060Z,97348.28
2023-02-18T05:25:36.240Z,97337.34
2023-02-18T05:28:02.697Z,97333.88
2023-02-18T05:30:29.407Z,97337.63
2023-02-18T05:32:55.885Z,97339.13
2023-02-18T05:35:22.342Z,97347.06
2023-02-18T05:37:54.721Z,97352.78
2023-02-18T05:40:21.339Z,97352.78
2023-02-18T05:42:48.891Z,97338.63
2023-02-18T05:45:15.674Z,97350.56
2023-02-18T05:47:42.094Z,97353.72
2023-02-18T05:50:08.898Z,97349.19
2023-02-18T05:52:35.336Z,97345.22
2023-02-18T05:55:01.822Z,97341.88
2023-02-18T05:57:28.334Z,97336.69
2023-02-18T05:59:57.535Z,97344.81
2023-02-18T06:02:24.744Z,97336.56
2023-02-18T06:04:51.286Z,97334.22
2023-02-18T06:07:18.367Z,97337.00
2023-02-18T06:09:44.807Z,97333.66
2023-02-18T06:12:11.544Z,97331.59
2023-02-18T06:14:38.312Z,97337.50
2023-02-18T06:17:04.968Z,97333.31
2023-02-18T06:19:31.504Z,97327.09
2023-02-18T06:21:58.031Z,97323.97
2023-02-18T06:24:24.446Z,97319.69
2023-02-18T06:26:50.885Z,97316.22
2023-02-18T06:29:17.294Z,97320.63
2023-02-18T06:31:43.922Z,97322.06
2023-02-18T06:34:16.720Z,97316.00
2023-02-18T06:36:43.275Z,97313.03
2023-02-18T06:39:09.723Z,97319.78
2023-02-18T06:41:36.209Z,97307.72
2023-02-18T06:44:04.053Z,97302.38
2023-02-18T06:46:30.546Z,97292.97
2023-02-18T06:48:56.986Z,97293.97
2023-02-18T06:51:23.532Z,97306.38
2023-02-18T06:53:50.069Z,97298.94
2023-02-18T06:56:17.205Z,97298.72
2023-02-18T06:58:43.687Z,97292.72
2023-02-18T07:01:10.316Z,97295.25
2023-02-18T07:03:36.853Z,97278.97
2023-02-18T07:06:03.734Z,97280.47
2023-02-18T07:08:30.954Z,97275.06
2023-02-18T07:10:57.441Z,97276.59
2023-02-18T07:13:23.931Z,97269.88
2023-02-18T07:15:50.382Z,97280.22
2023-02-18T07:18:22.935Z,97268.19
2023-02-18T07:20:51.418Z,97277.59
2023-02-18T07:23:23.001Z,97278.22
2023-02-18T07:25:49.494Z,97267.00
2023-02-18T07:28:16.451Z,97259.88
2023-02-18T07:30:42.939Z,97253.22
2023-02-18T07:33:09.366Z,97259.13
2023-02-18T07:35:39.005Z,97261.38
2023-02-18T07:38:14.601Z,97259.69
2023-02-18T07:40:41.150Z,97262.94
2023-02-18T07:43:07.686Z,97255.16
2023-02-18T07:45:34.163Z,97262.16
2023-02-18T07:48:00.668Z,97266.97
2023-02-18T07:50:27.340Z,97273.53
2023-02-18T07:52:53.832Z,97275.28
2023-02-18T07:55:20.292Z,97269.53
2023-02-18T07:58:01.072Z,97272.78
2023-02-18T08:00:33.303Z,97273.94
2023-02-18T08:02:59.752Z,97276.88
2023-02-18T08:05:26.276Z,97272.69
2023-02-18T08:07:52.747Z,97276.34
2023-02-18T08:10:19.301Z,97260.81
2023-02-18T08:12:46.233Z,97266.50
2023-02-18T08:15:13.585Z,97266.97
2023-02-18T08:17:42.065Z,97263.59
2023-02-18T08:20:10.951Z,97265.53
2023-02-18T08:22:38.072Z,97258.50
2023-02-18T08:25:05.407Z,97259.63
2023-02-18T08:27:31.980Z,97263.03
2023-02-18T08:29:58.453Z,97248.94
2023-02-18T08:32:28.805Z,97263.72
2023-02-18T08:34:55.887Z,97253.63
2023-02-18T08:37:23.854Z,97249.97
2023-02-18T08:39:50.508Z,97240.34
2023-02-18T08:42:18.107Z,97252.03
2023-02-18T08:44:44.672Z,97242.63
2023-02-18T08:48:15.915Z,97238.09
2023-02-18T08:50:06.912Z,97232.63
2023-02-18T08:52:33.448Z,97218.00
2023-02-18T08:55:06.794Z,97219.44
2023-02-18T08:57:39.293Z,97223.41
2023-02-18T09:00:07.052Z,97225.69
2023-02-18T09:02:36.724Z,97211.19
2023-02-18T09:05:09.721Z,97213.53
2023-02-18T09:07:37.193Z,97208.47
2023-02-18T09:10:04.606Z,97208.16
2023-02-18T09:12:32.885Z,97207.63
2023-02-18T09:15:00.484Z,97178.06
2023-02-18T09:17:27.902Z,97184.84
2023-02-18T09:19:54.625Z,97180.81
2023-02-18T09:22:21.286Z,97181.28
2023-02-18T09:24:47.753Z,97178.09
2023-02-18T09:27:21.265Z,97187.38
2023-02-18T09:29:49.850Z,97166.75
2023-02-18T09:32:32.549Z,97175.03
2023-02-18T09:35:02.707Z,97173.59
2023-02-18T09:37:29.260Z,97174.53
2023-02-18T09:39:56.041Z,97173.44
2023-02-18T09:42:32.531Z,97182.22
2023-02-18T09:45:03.991Z,97184.78
2023-02-18T09:47:39.503Z,97174.88
2023-02-18T09:50:28.710Z,97173.88
2023-02-18T09:52:58.433Z,97177.63
2023-02-18T09:55:39.368Z,97192.59
2023-02-18T09:58:15.475Z,97180.75
2023-02-18T10:00:48.539Z,97179.41
2023-02-18T10:03:23.976Z,97178.84
2023-02-18T10:05:59.402Z,97158.75
2023-02-18T10:08:35.386Z,97163.56
2023-02-18T10:11:02.335Z,97167.25
2023-02-18T10:13:33.081Z,97159.75
2023-02-18T10:16:00.490Z,97167.56
2023-02-18T10:18:45.585Z,97155.94
2023-02-18T10:21:16.494Z,97159.25
2023-02-18T10:23:53.070Z,97151.31
2023-02-18T10:26:20.557Z,97148.22
2023-02-18T10:28:47.710Z,97149.75
2023-02-18T10:31:28.688Z,97146.28
2023-02-18T10:34:18.523Z,97163.47
2023-02-18T10:36:58.465Z,97130.13
2023-02-18T10:39:43.258Z,97124.13
2023-02-18T10:42:09.695Z,97118.41
2023-02-18T10:44:45.085Z,97118.28
2023-02-18T10:47:19.521Z,97119.66
2023-02-18T10:49:54.729Z,97112.28
2023-02-18T10:52:21.484Z,97111.00
2023-02-18T10:54:52.889Z,97113.50
2023-02-18T10:57:22.505Z,97110.59
2023-02-18T11:00:15.790Z,97111.53
2023-02-18T11:02:42.714Z,97110.22
2023-02-18T11:05:28.177Z,97092.09
2023-02-18T11:07:58.567Z,97110.38
2023-02-18T11:10:33.891Z,97098.28
2023-02-18T11:13:09.378Z,97092.97
2023-02-18T11:15:36.564Z,97103.28
2023-02-18T11:18:25.611Z,97081.56
2023-02-18T11:21:04.597Z,97084.34
2023-02-18T11:23:45.131Z,97078.63
2023-02-18T11:26:17.405Z,97071.28
2023-02-18T11:28:47.992Z,97087.38
2023-02-18T11:31:24.961Z,97073.28
2023-02-18T11:34:03.163Z,97081.94
2023-02-18T11:36:35.666Z,97076.53
2023-02-18T11:39:24.649Z,97061.22
2023-02-18T11:42:04.906Z,97056.56
2023-02-18T11:44:38.345Z,97051.69
2023-02-18T11:47:13.959Z,97057.84
2023-02-18T11:49:43.429Z,97050.13
2023-02-18T11:52:46.719Z,97051.00
2023-02-18T11:55:18.775Z,97043.13
2023-02-18T11:58:06.453Z,97036.22
2023-02-18T12:00:48.608Z,97038.25
2023-02-18T12:03:48.343Z,97034.00
2023-02-18T12:06:32.285Z,97030.34
2023-02-18T12:09:06.083Z,97035.63
2023-02-18T12:11:40.296Z,97039.94
2023-02-18T12:14:17.493Z,97030.13
2023-02-18T12:16:50.263Z,97026.78
2023-02-18T12:19:19.722Z,97030.59
2023-02-18T12:22:06.596Z,97029.38
2023-02-18T12:25:01.046Z,97020.22
2023-02-18T12:28:17.330Z,97023.88
2023-02-18T12:30:56.016Z,97027.63
2023-02-18T12:33:28.309Z,97027.63
2023-02-18T12:36:03.724Z,97020.50
2023-02-18T12:38:38.909Z,97014.63
2023-02-18T12:41:08.509Z,97017.19
2023-02-18T12:43:38.175Z,97001.84
2023-02-18T12:46:10.616Z,97006.75
2023-02-18T12:48:56.887Z,97010.50
2023-02-18T12:51:36.322Z,97013.47
2023-02-18T12:54:13.778Z,97005.75
2023-02-18T12:56:45.989Z,97001.88
2023-02-18T12:59:53.258Z,97005.13
2023-02-18T13:02:25.459Z,96998.59
2023-02-18T13:04:51.889Z,97000.38
2023-02-18T13:07:40.493Z,96990.13
2023-02-18T13:10:28.407Z,96991.81
2023-02-18T13:13:18.351Z,96975.88
2023-02-18T13:15:56.905Z,96990.78
2023-02-18T13:18:42.214Z,96985.69
2023-02-18T13:21:14.102Z,96986.06
2023-02-18T13:24:06.155Z,96962.34
2023-02-18T13:26:34.274Z,96961.41
2023-02-18T13:29:24.721Z,96943.00
2023-02-18T13:32:12.281Z,96955.19
2023-02-18T13:35:09.955Z,96943.50
2023-02-18T13:38:04.239Z,96955.34
2023-02-18T13:40:32.875Z,96963.16
2023-02-18T13:43:27.140Z,96949.94
2023-02-18T13:46:17.456Z,96961.66
2023-02-18T13:49:07.304Z,96960.00
2023-02-18T13:51:41.246Z,96958.59
2023-02-18T13:54:10.635Z,96963.25
2023-02-18T13:56:46.751Z,96959.16
2023-02-18T13:59:36.248Z,96953.78
2023-02-18T14:02:48.879Z,96952.47
2023-02-18T14:05:21.788Z,96951.56
2023-02-18T14:08:06.352Z,96962.34
2023-02-18T14:10:35.701Z,96951.81
2023-02-18T14:13:20.810Z,96967.19
2023-02-18T14:15:59.456Z,96954.81
2023-02-18T14:18:58.952Z,96931.81
2023-02-18T14:21:42.597Z,96941.19
2023-02-18T14:24:13.522Z,96956.91
2023-02-18T14:26:49.485Z,96952.41
2023-02-18T14:29:30.967Z,96961.34
2023-02-18T14:32:04.925Z,96948.56
2023-02-18T14:34:49.646Z,96961.88
2023-02-18T14:37:36.258Z,96957.34
2023-02-18T14:40:27.017Z,96956.50
2023-02-18T14:43:25.696Z,96958.41
2023-02-18T14:46:23.376Z,96961.25
2023-02-18T14:48:59.770Z,96965.91
2023-02-18T14:51:29.488Z,96947.53
2023-02-18T14:53:56.020Z,96953.03
2023-02-18T14:56:24.939Z,96971.31
2023-02-18T14:58:59.923Z,96984.94
2023-02-18T15:01:35.980Z,96975.66
2023-02-18T15:04:04.338Z,96976.59
2023-02-18T15:06:33.581Z,96979.94
2023-02-18T15:09:03.906Z,96976.81
2023-02-18T15:11:43.391Z,96983.56
2023-02-18T15:14:16.764Z,96978.91
2023-02-18T15:16:44.777Z,96983.59
2023-02-18T15:19:20.198Z,96980.63
2023-02-18T15:21:51.271Z,96997.31
2023-02-18T15:24:18.944Z,96996.13
2023-02-18T15:26:50.605Z,96998.41
2023-02-18T15:29:23.083Z,96996.13
2023-02-18T15:31:49.950Z,97008.97
2023-02-18T15:34:35.362Z,96989.84
2023-02-18T15:37:13.947Z,96999.50
2023-02-18T15:39:42.999Z,97007.94
2023-02-18T15:42:34.456Z,96994.88
2023-02-18T15:45:16.885Z,97001.66
2023-02-18T15:47:48.082Z,97001.94
2023-02-18T15:50:26.650Z,97001.41
2023-02-18T15:52:55.363Z,97013.25
2023-02-18T15:55:33.919Z,97009.31
2023-02-18T15:58:22.941Z,97029.72
2023-02-18T16:00:56.436Z,97017.56
2023-02-18T16:03:24.501Z,97014.63
2023-02-18T16:05:52.289Z,97024.16
2023-02-18T16:08:27.793Z,97014.63
2023-02-18T16:11:13.615Z,97020.38
2023-02-18T16:13:48.125Z,97016.09
2023-02-18T16:16:34.063Z,97014.94
2023-02-18T16:19:01.361Z,97021.97
2023-02-18T16:21:46.789Z,97016.94
2023-02-18T16:24:25.667Z,97033.31
2023-02-18T16:26:56.590Z,97025.81
2023-02-18T16:29:35.048Z,97036.50
2023-02-18T16:32:01.903Z,97034.03
2023-02-18T16:34:30.517Z,97020.88
2023-02-18T16:37:22.265Z,97019.91
2023-02-18T16:39:51.981Z,97008.91
2023-02-18T16:42:18.676Z,97006.28
2023-02-18T16:44:50.612Z,97011.69
2023-02-18T16:47:28.323Z,97026.78
2023-02-18T16:49:55.311Z,97035.63
2023-02-18T16:52:22.777Z,97030.25
2023-02-18T16:54:50.302Z,97036.63
2023-02-18T16:57:16.843Z,97041.22
2023-02-18T16:59:45.365Z,97046.00
2023-02-18T17:02:22.507Z,97053.53
2023-02-18T17:04:58.412Z,97047.31
2023-02-18T17:07:24.974Z,97064.06
2023-02-18T17:09:53.521Z,97065.69
2023-02-18T17:12:19.982Z,97075.53
2023-02-18T17:14:46.924Z,97082.25
2023-02-18T17:17:22.573Z,97084.88
2023-02-18T17:19:49.448Z,97091.94
2023-02-18T17:22:15.986Z,97085.22
2023-02-18T17:24:42.719Z,97094.72
2023-02-18T17:27:11.109Z,97100.97
2023-02-18T17:29:37.595Z,97097.81
2023-02-18T17:32:08.211Z,97092.25
2023-02-18T17:34:36.183Z,97098.63
2023-02-18T17:37:03.061Z,97106.81
2023-02-18T17:39:31.412Z,97102.75
2023-02-18T17:42:01.003Z,97104.19
2023-02-18T17:44:29.153Z,97108.78
2023-02-18T17:46:56.096Z,97111.31
2023-02-18T17:49:23.650Z,97112.94
2023-02-18T17:51:59.365Z,97109.16
2023-02-18T17:54:28.071Z,97114.25
2023-02-18T17:56:55.651Z,97120.59
2023-02-18T17:59:22.614Z,97122.78
2023-02-18T18:01:55.236Z,97127.34
2023-02-18T18:04:21.734Z,97131.75
2023-02-18T18:06:50.050Z,97127.84
2023-02-18T18:09:17.520Z,97129.50
2023-02-18T18:11:59.174Z,97126.53
2023-02-18T18:14:31.861Z,97132.56
2023-02-18T18:17:00.259Z,97131.94
2023-02-18T18:19:33.774Z,97130.41
2023-02-18T18:22:00.334Z,97138.78
2023-02-18T18:24:26.985Z,97133.09
2023-02-18T18:26:57.978Z,97140.09
2023-02-18T18:29:28.463Z,97138.97
2023-02-18T18:31:54.934Z,97150.94
2023-02-18T18:34:23.531Z,97147.47
2023-02-18T18:36:51.054Z,97158.47
2023-02-18T18:39:23.312Z,97162.06
2023-02-18T18:41:49.976Z,97154.88
2023-02-18T18:44:22.652Z,97157.34
2023-02-18T18:46:49.137Z,97170.06
2023-02-18T18:49:16.612Z,97166.13
2023-02-18T18:51:43.368Z,97165.19
2023-02-18T18:54:11.926Z,97170.84
2023-02-18T18:56:38.487Z,97164.84
2023-02-18T18:59:05.283Z,97167.13
2023-02-18T19:01:33.151Z,97162.56
2023-02-18T19:03:59.701Z,97164.31
2023-02-18T19:06:26.461Z,97165.13
2023-02-18T19:08:52.909Z,97150.41
2023-02-18T19:11:19.359Z,97156.41
2023-02-18T19:13:45.980Z,97158.19
2023-02-18T19:16:37.335Z,97165.38
2023-02-18T19:19:03.881Z,97159.00
2023-02-18T19:21:31.690Z,97166.06
2023-02-18T19:23:59.835Z,97168.34
2023-02-18T19:26:26.278Z,97169.78
2023-02-18T19:28:52.755Z,97166.78
2023-02-18T19:31:24.297Z,97174.44
2023-02-18T19:33:51.605Z,97171.34
2023-02-18T19:36:19.213Z,97174.06
2023-02-18T19:38:53.005Z,97173.88
2023-02-18T19:41:19.519Z,97175.22
2023-02-18T19:43:48.871Z,97182.00
2023-02-18T19:46:23.540Z,97176.50
2023-02-18T19:48:53.844Z,97173.88
2023-02-18T19:51:21.657Z,97186.66
2023-02-18T19:53:48.164Z,97181.75
2023-02-18T19:56:14.649Z,97189.13
2023-02-18T19:58:42.453Z,97190.56
2023-02-18T20:01:16.471Z,97190.00
2023-02-18T20:03:44.796Z,97194.59
2023-02-18T20:06:21.819Z,97188.16
2023-02-18T20:08:50.258Z,97189.69
2023-02-18T20:11:25.914Z,97183.03
2023-02-18T20:13:54.315Z,97181.53
2023-02-18T20:16:20.847Z,97179.66
2023-02-18T20:18:47.410Z,97185.34
2023-02-18T20:21:13.997Z,97181.44
2023-02-18T20:23:40.931Z,97186.47
2023-02-18T20:26:08.991Z,97186.53
2023-02-18T20:28:35.624Z,97184.56
2023-02-18T20:31:11.376Z,97196.03
2023-02-18T20:33:38.709Z,97183.59
2023-02-18T20:36:07.037Z,97186.56
2023-02-18T20:38:34.127Z,97178.25
2023-02-18T20:41:14.445Z,97186.97
2023-02-18T20:43:42.075Z,97185.13
2023-02-18T20:46:12.288Z,97178.81
2023-02-18T20:48:43.093Z,97183.91
2023-02-18T20:51:22.306Z,97180.91
2023-02-18T20:53:50.186Z,97182.78
2023-02-18T20:56:22.010Z,97183.06
2023-02-18T20:58:51.942Z,97186.97
2023-02-18T21:01:20.850Z,97177.06
2023-02-18T21:03:48.024Z,97177.25
2023-02-18T21:06:17.529Z,97181.34
2023-02-18T21:08:47.373Z,97186.88
2023-02-18T21:11:17.251Z,97179.28
2023-02-18T21:13:47.070Z,97168.28
2023-02-18T21:16:14.577Z,97173.31
2023-02-18T21:18:41.239Z,97177.59
2023-02-18T21:21:09.736Z,97159.84
2023-02-18T21:23:39.475Z,97169.94
2023-02-18T21:26:18.924Z,97160.97
2023-02-18T21:28:58.615Z,97161.47
2023-02-18T21:31:31.897Z,97170.03
2023-02-18T21:34:00.771Z,97168.47
2023-02-18T21:36:27.864Z,97166.22
2023-02-18T21:38:56.535Z,97171.50
2023-02-18T21:41:24.137Z,97177.09
2023-02-18T21:43:50.876Z,97167.91
2023-02-18T21:46:29.384Z,97172.09
2023-02-18T21:49:02.638Z,97176.28
2023-02-18T21:51:49.025Z,97159.31
2023-02-18T21:54:21.758Z,97163.31
2023-02-18T21:56:50.037Z,97158.50
2023-02-18T21:59:18.679Z,97158.34
2023-02-18T22:01:46.841Z,97150.28
2023-02-18T22:04:13.373Z,97172.38
2023-02-18T22:06:39.953Z,97153.41
2023-02-18T22:09:07.107Z,97155.81
2023-02-18T22:11:34.391Z,97159.69
2023-02-18T22:14:01.084Z,97157.69
2023-02-18T22:16:29.788Z,97152.28
2023-02-18T22:18:57.368Z,97158.78
2023-02-18T22:21:33.059Z,97155.72
2023-02-18T22:23:59.636Z,97162.03
2023-02-18T22:26:26.103Z,97160.97
2023-02-18T22:28:58.294Z,97162.38
2023-02-18T22:31:26.572Z,97158.88
2023-02-18T22:33:53.614Z,97151.53
2023-02-18T22:36:22.030Z,97160.75
2023-02-18T22:38:49.383Z,97157.69
2023-02-18T22:41:18.507Z,97158.97
2023-02-18T22:43:45.675Z,97153.03
2023-02-18T22:46:16.310Z,97155.50
2023-02-18T22:48:44.407Z,97157.28
2023-02-18T22:51:19.978Z,97158.09
2023-02-18T22:53:46.718Z,97153.69
2023-02-18T22:56:16.582Z,97152.75
2023-02-18T22:58:43.757Z,97151.28
2023-02-18T23:01:29.469Z,97152.84
2023-02-18T23:04:13.683Z,97149.44
2023-02-18T23:06:42.696Z,97154.25
2023-02-18T23:09:13.901Z,97154.31
2023-02-18T23:11:40.592Z,97148.41
2023-02-18T23:14:19.260Z,97148.63
2023-02-18T23:17:14.954Z,97147.44
2023-02-18T23:19:43.108Z,97148.31
2023-02-18T23:22:11.634Z,97141.81
2023-02-18T23:24:41.616Z,97142.50
2023-02-18T23:27:10.225Z,97134.47
2023-02-18T23:29:37.397Z,97122.13
2023-02-18T23:32:04.990Z,97124.81
2023-02-18T23:34:32.836Z,97126.66
2023-02-18T23:36:59.439Z,97128.31
2023-02-18T23:39:26.716Z,97123.41
2023-02-18T23:41:53.464Z,97123.50
2023-02-18T23:44:22.263Z,97121.03
2023-02-18T23:46:49.080Z,97125.00
2023-02-18T23:49:24.186Z,97116.63
2023-02-18T23:51:53.079Z,97117.00
2023-02-18T23:54:20.232Z,97105.44
2023-02-18T23:56:46.961Z,97110.19
2023-02-18T23:59:13.655Z,97096.78
